Time;durP1;ratioP1;P1;durP2;ratioP2;P2;SDS_P1;SDS_P2;PMS_P1;PMS_P2;Temp;Humidity;BMP_temperature;BMP_pressure;BME280_temperature;BME280_humidity;BME280_pressure;Samples;Min_cycle;Max_cycle;Signal;HPM_P1;HPM_P2
2021/09/23 00:00:23;;;;;;;;;5.50;5.50;;;;;17.54;49.99;100999.56;146607;664;46018;-74
2021/09/23 00:05:40;;;;;;;;;8.25;7.00;;;;;17.61;49.30;101008.47;146608;594;46018;-77
2021/09/23 00:08:14;;;;;;;;;6.00;5.75;;;;;17.67;49.81;101008.62;146606;670;46018;-76
2021/09/23 00:10:48;;;;;;;;;5.25;4.25;;;;;17.72;49.66;101012.25;146606;602;46019;-76
2021/09/23 00:13:25;;;;;;;;;6.00;6.00;;;;;17.76;49.81;101014.13;146606;707;45026;-74
2021/09/23 00:15:59;;;;;;;;;6.25;6.00;;;;;17.75;48.95;101009.72;146607;569;46018;-78
2021/09/23 00:18:33;;;;;;;;;6.25;4.75;;;;;17.81;49.51;101014.28;146606;573;46030;-78
2021/09/23 00:21:07;;;;;;;;;3.75;2.50;;;;;17.82;49.05;100997.66;146608;716;46018;-79
2021/09/23 00:23:40;;;;;;;;;7.25;6.00;;;;;17.78;49.02;100996.72;146605;657;46011;-77
2021/09/23 00:26:14;;;;;;;;;5.75;3.75;;;;;17.71;47.92;100989.50;146604;667;46018;-80
2021/09/23 00:28:48;;;;;;;;;5.00;5.00;;;;;17.71;48.30;100997.38;146605;565;46018;-78
2021/09/23 00:31:22;;;;;;;;;7.25;6.50;;;;;17.71;48.91;101002.63;146609;626;46006;-78
2021/09/23 00:33:56;;;;;;;;;7.00;7.00;;;;;17.71;48.54;101005.25;146605;742;46023;-80
2021/09/23 00:36:31;;;;;;;;;7.25;7.25;;;;;17.73;48.70;101004.44;146607;569;46018;-78
2021/09/23 00:39:05;;;;;;;;;10.25;9.50;;;;;17.74;49.23;101010.56;146603;564;46019;-77
2021/09/23 00:41:39;;;;;;;;;7.75;7.75;;;;;17.67;49.30;101020.00;146608;595;46018;-78
2021/09/23 00:44:20;;;;;;;;;9.00;9.00;;;;;17.62;49.20;101008.50;146606;571;46010;-79
2021/09/23 00:46:57;;;;;;;;;8.50;7.25;;;;;17.62;49.37;101015.47;146606;654;46019;-78
2021/09/23 00:49:31;;;;;;;;;9.00;7.50;;;;;17.58;49.06;101034.59;146606;594;47010;-78
2021/09/23 00:52:05;;;;;;;;;9.50;8.75;;;;;17.60;49.04;101025.03;146605;587;46018;-76
2021/09/23 00:54:39;;;;;;;;;9.00;7.75;;;;;17.52;48.07;101027.44;146604;645;46019;-78
2021/09/23 00:57:17;;;;;;;;;7.50;5.00;;;;;17.47;48.22;101019.44;146607;650;46008;-75
2021/09/23 00:59:53;;;;;;;;;7.50;7.00;;;;;17.51;48.36;101021.31;146606;571;46011;-73
2021/09/23 01:02:28;;;;;;;;;5.75;5.50;;;;;17.52;48.58;101015.22;146608;609;45019;-74
2021/09/23 01:05:02;;;;;;;;;10.50;8.50;;;;;17.54;48.15;101020.53;146607;574;46010;-74
2021/09/23 01:07:36;;;;;;;;;8.75;8.00;;;;;17.55;48.55;101020.56;146608;602;46019;-76
2021/09/23 01:10:10;;;;;;;;;6.25;6.00;;;;;17.54;48.19;101026.66;146604;707;46018;-76
2021/09/23 01:12:45;;;;;;;;;7.00;6.50;;;;;17.54;48.64;101012.66;146609;599;46018;-72
2021/09/23 01:15:22;;;;;;;;;2.00;2.00;;;;;17.53;48.22;101032.72;146602;573;47020;-75
2021/09/23 01:17:56;;;;;;;;;7.00;6.00;;;;;17.52;48.34;101038.81;146607;566;46018;-75
2021/09/23 01:20:31;;;;;;;;;6.75;6.75;;;;;17.54;48.13;101021.41;146606;667;46914;-73
2021/09/23 01:23:05;;;;;;;;;8.00;7.25;;;;;17.56;47.45;101034.53;146611;627;45018;-80
2021/09/23 01:25:39;;;;;;;;;6.50;5.25;;;;;17.55;46.97;101025.81;146606;585;46018;-78
2021/09/23 01:28:13;;;;;;;;;10.00;6.50;;;;;17.53;45.91;101037.97;146607;630;46018;-79
2021/09/23 01:30:46;;;;;;;;;8.00;6.00;;;;;17.55;46.31;101038.91;146608;689;45023;-84
2021/09/23 01:33:20;;;;;;;;;7.00;6.50;;;;;17.52;46.33;101041.44;146609;730;46008;-74
2021/09/23 01:35:54;;;;;;;;;8.00;5.75;;;;;17.50;45.41;101037.00;146602;580;46018;-74
2021/09/23 01:38:32;;;;;;;;;4.25;4.00;;;;;17.50;46.23;101048.38;146609;715;46018;-73
2021/09/23 01:41:06;;;;;;;;;6.00;5.00;;;;;17.50;45.76;101047.47;146605;590;46018;-71
2021/09/23 01:43:40;;;;;;;;;8.50;6.25;;;;;17.48;45.12;101042.22;146608;581;46018;-78
2021/09/23 01:46:14;;;;;;;;;7.75;6.75;;;;;17.47;44.64;101052.62;146604;615;46019;-76
2021/09/23 01:48:48;;;;;;;;;5.50;5.00;;;;;17.47;45.33;101052.62;146607;563;46010;-79
2021/09/23 01:51:22;;;;;;;;;6.25;5.25;;;;;17.52;46.31;101051.94;146604;592;46019;-78
2021/09/23 01:53:56;;;;;;;;;7.00;6.00;;;;;17.55;45.76;101057.25;146611;635;46008;-75
2021/09/23 01:56:38;;;;;;;;;8.25;6.75;;;;;17.58;46.06;101058.22;146607;569;46018;-81
2021/09/23 01:59:12;;;;;;;;;8.75;7.25;;;;;17.56;46.11;101047.66;146609;618;46008;-80
2021/09/23 02:01:46;;;;;;;;;4.75;4.00;;;;;17.56;45.75;101052.91;146605;569;46029;-78
2021/09/23 02:04:20;;;;;;;;;7.00;7.00;;;;;17.55;46.34;101062.50;146607;628;46018;-81
2021/09/23 02:06:54;;;;;;;;;6.25;6.25;;;;;17.56;46.68;101066.00;146604;600;46019;-80
2021/09/23 02:09:32;;;;;;;;;8.50;6.75;;;;;17.59;46.54;101067.84;146606;581;46018;-79
2021/09/23 02:12:07;;;;;;;;;5.00;5.00;;;;;17.61;46.54;101061.78;146603;665;46018;-80
2021/09/23 02:14:41;;;;;;;;;6.00;6.00;;;;;17.60;46.18;101072.22;146606;646;46019;-81
2021/09/23 02:17:15;;;;;;;;;6.00;5.75;;;;;17.58;46.04;101045.09;146606;659;46010;-82
2021/09/23 02:19:49;;;;;;;;;7.00;6.00;;;;;17.57;46.23;101067.81;146606;624;46018;-77
2021/09/23 02:22:23;;;;;;;;;7.00;6.00;;;;;17.55;46.01;101057.25;146606;586;45914;-79
2021/09/23 02:24:57;;;;;;;;;5.25;4.25;;;;;17.53;46.07;101058.06;146607;638;46018;-75
2021/09/23 02:27:31;;;;;;;;;6.00;6.00;;;;;17.54;46.85;101057.25;146604;617;46018;-73
2021/09/23 02:30:05;;;;;;;;;6.25;6.25;;;;;17.51;46.45;101052.78;146609;631;46019;-73
2021/09/23 02:32:40;;;;;;;;;7.50;7.00;;;;;17.47;46.52;101057.87;146601;579;47010;-73
2021/09/23 02:35:14;;;;;;;;;7.00;6.75;;;;;17.42;46.35;101057.78;146608;587;45020;-73
2021/09/23 02:37:48;;;;;;;;;7.00;7.00;;;;;17.39;45.83;101049.81;146608;679;45045;-77
2021/09/23 02:40:22;;;;;;;;;8.25;6.00;;;;;17.36;46.01;101040.97;146608;614;45046;-76
2021/09/23 02:42:56;;;;;;;;;4.75;4.50;;;;;17.36;46.63;101043.59;146603;713;46018;-78
2021/09/23 02:46:03;;;;;;;;;5.00;4.00;;;;;17.36;45.93;101043.59;146609;572;46010;-77
2021/09/23 02:48:37;;;;;;;;;5.00;5.00;;;;;17.36;45.38;101056.72;146606;647;46010;-77
2021/09/23 02:51:11;;;;;;;;;5.25;4.50;;;;;17.36;45.92;101065.44;146607;646;47010;-75
2021/09/23 02:53:45;;;;;;;;;6.75;4.75;;;;;17.41;45.97;101057.72;146604;637;46018;-76
2021/09/23 02:56:19;;;;;;;;;5.00;5.00;;;;;17.45;46.37;101072.69;146607;606;47010;-76
2021/09/23 02:58:53;;;;;;;;;6.50;3.75;;;;;17.44;45.22;101074.41;146604;623;46019;-76
2021/09/23 03:01:27;;;;;;;;;6.50;6.50;;;;;17.46;45.30;101077.09;146607;595;46008;-74
2021/09/23 03:04:01;;;;;;;;;6.50;6.25;;;;;17.43;46.13;101071.75;146605;578;46018;-73
2021/09/23 03:06:35;;;;;;;;;9.00;6.75;;;;;17.38;46.41;101074.22;146606;607;46912;-73
2021/09/23 03:09:09;;;;;;;;;6.25;6.00;;;;;17.36;46.33;101089.03;146610;584;45022;-75
2021/09/23 03:11:43;;;;;;;;;10.00;9.00;;;;;17.35;46.92;101087.25;146605;627;46018;-74
2021/09/23 03:14:19;;;;;;;;;6.00;6.00;;;;;17.36;46.30;101090.78;146606;575;46019;-74
2021/09/23 03:16:53;;;;;;;;;10.00;7.00;;;;;17.34;45.97;101075.00;146609;611;46018;-75
2021/09/23 03:19:27;;;;;;;;;7.25;7.00;;;;;17.36;45.49;101072.44;146603;563;47010;-77
2021/09/23 03:22:01;;;;;;;;;6.00;5.00;;;;;17.33;44.85;101061.88;146609;578;46018;-71
2021/09/23 03:24:35;;;;;;;;;4.25;4.25;;;;;17.33;44.96;101078.47;146604;609;46018;-76
2021/09/23 03:27:09;;;;;;;;;5.75;5.00;;;;;17.36;45.08;101075.06;146605;619;46019;-77
2021/09/23 03:29:42;;;;;;;;;6.00;5.25;;;;;17.35;44.87;101071.50;146604;571;46019;-77
2021/09/23 03:32:16;;;;;;;;;5.75;5.75;;;;;17.37;43.95;101071.59;146605;576;47010;-77
2021/09/23 03:34:50;;;;;;;;;4.25;4.25;;;;;17.38;44.02;101071.59;146604;683;47914;-72
2021/09/23 03:37:24;;;;;;;;;5.25;4.25;;;;;17.40;44.22;101066.44;146608;586;46018;-76
2021/09/23 03:39:58;;;;;;;;;5.00;5.00;;;;;17.41;44.27;101074.31;146605;579;47010;-77
2021/09/23 03:42:32;;;;;;;;;3.50;3.00;;;;;17.42;43.37;101070.00;146609;565;46018;-77
2021/09/23 03:45:07;;;;;;;;;5.25;4.00;;;;;17.44;43.01;101089.25;146608;592;46019;-75
2021/09/23 03:47:41;;;;;;;;;5.25;5.25;;;;;17.39;43.53;101085.63;146608;622;46018;-75
2021/09/23 03:50:16;;;;;;;;;6.00;6.00;;;;;17.35;44.67;101079.38;146606;569;46011;-76
2021/09/23 03:52:50;;;;;;;;;4.25;4.25;;;;;17.35;44.02;101078.50;146608;593;47008;-76
2021/09/23 03:55:24;;;;;;;;;5.00;5.00;;;;;17.35;43.89;101082.00;146605;658;46018;-76
2021/09/23 03:57:58;;;;;;;;;8.50;6.50;;;;;17.35;43.46;101097.72;146610;567;46008;-76
2021/09/23 04:00:32;;;;;;;;;4.75;4.50;;;;;17.28;42.51;101090.53;146604;579;46018;-74
2021/09/23 04:03:06;;;;;;;;;8.25;6.50;;;;;17.29;44.18;101094.97;146606;569;46018;-72
2021/09/23 04:05:40;;;;;;;;;4.00;4.00;;;;;17.29;44.71;101105.44;146605;615;46018;-72
2021/09/23 04:08:14;;;;;;;;;7.00;5.00;;;;;17.33;45.02;101095.94;146606;654;47010;-72
2021/09/23 04:10:47;;;;;;;;;6.00;5.50;;;;;17.34;44.30;101106.44;146605;636;46018;-72
2021/09/23 04:13:21;;;;;;;;;5.00;5.00;;;;;17.36;44.95;101103.88;146606;564;46018;-74
2021/09/23 04:15:55;;;;;;;;;4.75;4.00;;;;;17.26;44.75;101097.50;146604;690;46018;-73
2021/09/23 04:18:29;;;;;;;;;6.00;5.00;;;;;17.20;43.77;101103.44;146606;640;46008;-72
2021/09/23 04:21:03;;;;;;;;;4.75;3.75;;;;;17.20;43.65;101107.78;146605;666;46019;-73
2021/09/23 04:23:37;;;;;;;;;4.00;4.00;;;;;17.19;42.86;101130.44;146610;675;45018;-73
2021/09/23 04:26:11;;;;;;;;;3.50;3.00;;;;;17.11;41.23;101137.22;146606;618;46019;-72
2021/09/23 04:28:45;;;;;;;;;5.00;5.00;;;;;17.06;41.49;101139.66;146606;574;46019;-73
2021/09/23 04:31:19;;;;;;;;;6.00;5.00;;;;;17.04;42.28;101151.84;146609;604;45022;-73
2021/09/23 04:33:53;;;;;;;;;6.75;5.00;;;;;17.08;43.15;101158.97;146611;631;45018;-73
2021/09/23 04:36:30;;;;;;;;;6.50;3.50;;;;;17.09;42.47;101162.47;146603;615;47023;-74
2021/09/23 04:39:04;;;;;;;;;5.50;4.00;;;;;17.08;42.21;101158.06;146606;584;46018;-76
2021/09/23 04:41:38;;;;;;;;;6.00;5.00;;;;;17.09;42.71;101165.97;146606;617;46018;-76
2021/09/23 04:44:12;;;;;;;;;3.00;3.00;;;;;17.13;42.96;101173.91;146606;592;46010;-77
2021/09/23 04:46:51;;;;;;;;;4.00;4.00;;;;;17.16;43.79;101180.16;146606;563;46018;-74
2021/09/23 04:49:25;;;;;;;;;3.75;3.25;;;;;17.22;44.48;101184.69;146608;564;46009;-74
2021/09/23 04:51:59;;;;;;;;;5.00;5.00;;;;;17.23;45.28;101197.88;146603;566;46018;-73
2021/09/23 04:54:33;;;;;;;;;5.00;5.00;;;;;17.28;45.21;101180.53;146609;665;46018;-74
2021/09/23 04:57:07;;;;;;;;;6.50;4.50;;;;;17.33;45.95;101191.19;146605;674;46019;-75
2021/09/23 04:59:41;;;;;;;;;6.25;6.25;;;;;17.41;45.52;101175.66;146608;619;46018;-74
2021/09/23 05:02:15;;;;;;;;;5.00;5.00;;;;;17.48;46.11;101173.31;146605;573;46019;-73
2021/09/23 05:04:49;;;;;;;;;5.75;5.00;;;;;17.71;45.93;101184.47;146608;604;46019;-73
2021/09/23 05:07:23;;;;;;;;;7.50;6.00;;;;;18.11;45.63;101192.63;146608;581;46010;-73
2021/09/23 05:09:56;;;;;;;;;6.75;6.00;;;;;18.58;44.25;101188.66;146606;584;45020;-74
2021/09/23 05:12:30;;;;;;;;;5.00;4.25;;;;;18.78;43.12;101186.56;146608;606;46010;-75
2021/09/23 05:15:04;;;;;;;;;5.00;5.00;;;;;18.79;43.30;101182.22;146607;564;47008;-74
2021/09/23 05:17:38;;;;;;;;;8.50;5.50;;;;;18.69;43.33;101191.53;146604;564;46018;-76
2021/09/23 05:20:14;;;;;;;;;4.75;4.75;;;;;18.87;43.87;101188.53;146604;583;46019;-75
2021/09/23 05:22:48;;;;;;;;;6.25;5.75;;;;;19.38;42.89;101195.91;146605;581;46027;-76
2021/09/23 05:25:22;;;;;;;;;5.25;4.00;;;;;19.99;41.62;101199.87;146605;586;46018;-76
2021/09/23 05:27:56;;;;;;;;;5.00;5.00;;;;;20.54;40.25;101205.34;146607;572;46010;-76
2021/09/23 05:30:30;;;;;;;;;5.50;5.00;;;;;20.88;39.71;101201.56;146609;641;46008;-73
2021/09/23 05:33:05;;;;;;;;;7.50;6.75;;;;;21.06;39.04;101207.97;146605;597;46018;-73
2021/09/23 05:35:40;;;;;;;;;4.25;3.50;;;;;21.06;39.06;101214.16;146609;606;46008;-73
2021/09/23 05:38:13;;;;;;;;;6.00;4.00;;;;;21.03;39.23;101208.84;146605;565;47022;-77
2021/09/23 05:40:47;;;;;;;;;5.00;4.00;;;;;21.01;39.54;101214.94;146608;614;46010;-77
2021/09/23 05:43:21;;;;;;;;;4.75;4.50;;;;;21.03;39.44;101223.75;146606;569;46018;-77
2021/09/23 05:45:55;;;;;;;;;4.75;4.75;;;;;21.06;38.71;101223.78;146606;563;46019;-75
2021/09/23 05:48:29;;;;;;;;;3.33;2.67;;;;;21.05;39.26;101222.91;146609;581;46010;-73
2021/09/23 05:51:03;;;;;;;;;4.00;4.00;;;;;20.88;37.41;101216.50;146610;569;45023;-75
2021/09/23 05:53:36;;;;;;;;;4.75;4.25;;;;;20.71;38.03;101234.63;146604;654;47010;-75
2021/09/23 05:56:10;;;;;;;;;3.00;3.00;;;;;20.68;39.50;101219.63;146607;573;46019;-75
2021/09/23 05:58:45;;;;;;;;;5.50;5.50;;;;;20.76;39.31;101222.44;146604;711;46018;-75
2021/09/23 06:01:19;;;;;;;;;4.00;4.00;;;;;20.96;39.72;101225.38;146606;614;46018;-80
2021/09/23 06:03:53;;;;;;;;;4.00;4.00;;;;;21.17;39.55;101231.03;146608;685;45022;-80
2021/09/23 06:06:27;;;;;;;;;6.50;5.25;;;;;21.38;39.31;101229.63;146609;564;45018;-80
2021/09/23 06:09:03;;;;;;;;;6.00;5.50;;;;;21.54;39.40;101236.91;146606;641;46018;-79
2021/09/23 06:11:39;;;;;;;;;5.00;4.75;;;;;21.70;39.37;101247.66;146608;707;46019;-79
2021/09/23 06:14:13;;;;;;;;;4.00;4.00;;;;;21.81;38.40;101252.25;146607;581;46029;-78
2021/09/23 06:16:47;;;;;;;;;7.50;5.00;;;;;21.81;38.58;101259.28;146609;720;46008;-77
2021/09/23 06:19:21;;;;;;;;;5.50;5.00;;;;;21.80;39.29;101258.38;146604;564;47023;-77
2021/09/23 06:21:55;;;;;;;;;4.00;4.00;;;;;21.92;39.41;101268.22;146609;579;45020;-77
2021/09/23 06:24:29;;;;;;;;;4.00;4.00;;;;;22.07;38.50;101264.91;146605;573;46019;-77
2021/09/23 06:27:02;;;;;;;;;8.67;5.67;;;;;22.23;38.69;101258.94;146607;566;46018;-77
2021/09/23 06:29:36;;;;;;;;;5.67;4.00;;;;;22.42;38.30;101273.25;146608;597;46010;-76
2021/09/23 06:32:11;;;;;;;;;5.00;4.00;;;;;22.52;36.90;101269.88;146606;611;46912;-73
2021/09/23 06:34:44;;;;;;;;;5.00;5.00;;;;;22.55;36.87;101282.22;146605;567;46915;-81
2021/09/23 06:37:27;;;;;;;;;4.00;4.00;;;;;22.51;36.58;101281.28;146609;590;47010;-73
2021/09/23 06:40:01;;;;;;;;;5.00;5.00;;;;;22.51;37.89;101294.50;146605;603;46019;-76
2021/09/23 06:42:35;;;;;;;;;4.00;4.00;;;;;22.51;37.62;101291.88;146606;602;46010;-77
2021/09/23 06:45:09;;;;;;;;;4.00;4.00;;;;;22.51;37.93;101288.34;146607;610;46022;-76
2021/09/23 06:47:44;;;;;;;;;4.00;4.00;;;;;22.52;35.82;101290.09;146606;576;46019;-77
2021/09/23 06:50:18;;;;;;;;;8.33;4.67;;;;;22.47;36.39;101279.50;146607;570;46020;-76
2021/09/23 06:52:52;;;;;;;;;5.00;4.00;;;;;22.35;36.58;101285.53;146605;611;46016;-76
2021/09/23 06:55:26;;;;;;;;;3.00;2.33;;;;;22.30;37.99;101292.50;146606;569;46019;-78
2021/09/23 06:58:00;;;;;;;;;5.00;4.00;;;;;22.29;36.40;101303.06;146608;626;46018;-74
2021/09/23 07:00:33;;;;;;;;;3.33;2.67;;;;;22.28;36.32;101319.78;146607;592;47010;-75
2021/09/23 07:03:07;;;;;;;;;3.33;3.33;;;;;22.26;35.96;101314.47;146610;580;45019;-76
2021/09/23 07:05:43;;;;;;;;;3.75;3.75;;;;;22.26;35.49;101317.09;146605;620;46010;-75
2021/09/23 07:08:18;;;;;;;;;4.00;4.00;;;;;22.30;37.96;101318.91;146607;673;46018;-74
2021/09/23 07:10:52;;;;;;;;;5.67;3.33;;;;;22.37;38.29;101322.53;146606;603;46019;-76
2021/09/23 07:13:26;;;;;;;;;3.50;3.50;;;;;22.46;37.43;101322.66;146603;663;47010;-75
2021/09/23 07:16:00;;;;;;;;;5.75;5.75;;;;;22.54;37.52;101331.53;146604;621;46018;-75
2021/09/23 07:18:34;;;;;;;;;5.33;4.33;;;;;22.66;37.28;101329.94;146610;586;46008;-75
2021/09/23 07:21:08;;;;;;;;;5.00;5.00;;;;;22.82;36.56;101339.78;146604;603;46018;-76
2021/09/23 07:23:42;;;;;;;;;5.67;4.00;;;;;22.89;36.71;101343.38;146608;606;46008;-76
2021/09/23 07:26:17;;;;;;;;;4.00;3.67;;;;;22.94;36.27;101333.78;146609;626;46028;-75
2021/09/23 07:28:51;;;;;;;;;3.67;3.67;;;;;22.94;37.34;101334.66;146610;646;46010;-74
2021/09/23 07:31:25;;;;;;;;;3.67;3.67;;;;;22.94;36.89;101339.97;146605;637;46031;-75
2021/09/23 07:33:59;;;;;;;;;5.25;5.25;;;;;22.97;37.66;101342.63;146607;603;46018;-74
2021/09/23 07:36:33;;;;;;;;;4.00;4.00;;;;;23.10;37.44;101345.41;146607;633;46018;-75
2021/09/23 07:39:09;;;;;;;;;6.25;4.75;;;;;23.19;36.93;101349.03;146609;658;46011;-75
2021/09/23 07:41:45;;;;;;;;;5.75;4.75;;;;;23.29;36.66;101342.94;146604;606;46019;-75
2021/09/23 07:44:20;;;;;;;;;4.33;4.00;;;;;23.41;36.61;101350.09;146608;610;46010;-75
2021/09/23 07:46:59;;;;;;;;;7.00;6.00;;;;;23.52;36.07;101351.09;146606;595;47020;-75
2021/09/23 07:49:33;;;;;;;;;5.67;5.33;;;;;23.61;35.85;101362.59;146612;563;46008;-74
2021/09/23 07:52:07;;;;;;;;;5.00;5.00;;;;;23.60;35.80;101350.25;146608;597;47010;-76
2021/09/23 07:54:41;;;;;;;;;6.00;5.67;;;;;23.57;35.43;101336.97;146611;597;46008;-75
2021/09/23 07:57:15;;;;;;;;;6.50;6.50;;;;;23.49;35.75;101351.06;146605;711;46018;-74
2021/09/23 07:59:49;;;;;;;;;5.50;5.00;;;;;23.49;37.03;101347.53;146610;576;45018;-78
2021/09/23 08:02:23;;;;;;;;;3.75;3.50;;;;;23.45;35.69;101349.22;146604;587;46019;-71
2021/09/23 08:04:57;;;;;;;;;5.25;5.25;;;;;23.42;35.60;101351.84;146609;600;46008;-74
2021/09/23 08:07:31;;;;;;;;;5.67;5.33;;;;;23.35;36.52;101354.44;146608;600;46030;-78
2021/09/23 08:10:09;;;;;;;;;5.25;5.25;;;;;23.31;35.35;101360.59;146606;578;46022;-77
2021/09/23 08:12:43;;;;;;;;;5.00;5.00;;;;;23.26;35.53;101360.53;146602;639;46018;-79
2021/09/23 08:15:17;;;;;;;;;4.75;4.75;;;;;23.26;35.13;101348.19;146608;578;46008;-77
2021/09/23 08:17:51;;;;;;;;;3.67;3.67;;;;;23.28;36.70;101356.16;146605;597;46019;-77
2021/09/23 08:20:25;;;;;;;;;5.75;5.50;;;;;23.29;36.33;101365.87;146605;573;47008;-77
2021/09/23 08:22:59;;;;;;;;;5.00;4.00;;;;;23.34;35.95;101366.81;146604;597;46018;-71
2021/09/23 08:25:34;;;;;;;;;4.33;4.33;;;;;23.41;35.47;101363.31;146610;599;46008;-70
2021/09/23 08:28:08;;;;;;;;;3.75;3.75;;;;;23.50;34.36;101351.94;146606;586;46914;-70
2021/09/23 08:30:46;;;;;;;;;3.00;3.00;;;;;23.58;36.20;101339.63;146605;635;46027;-73
2021/09/23 08:33:22;;;;;;;;;4.00;3.50;;;;;23.64;34.27;101355.56;146603;626;47010;-79
2021/09/23 08:35:57;;;;;;;;;3.33;3.33;;;;;23.71;34.32;101351.25;146605;569;46018;-70
2021/09/23 08:38:31;;;;;;;;;3.33;3.33;;;;;23.82;35.50;101348.66;146608;614;46010;-73
2021/09/23 08:41:05;;;;;;;;;3.00;3.00;;;;;23.88;36.07;101354.88;146609;604;46018;-73
2021/09/23 08:43:38;;;;;;;;;6.75;4.50;;;;;23.95;36.15;101354.03;146605;709;46018;-75
2021/09/23 08:46:15;;;;;;;;;5.00;4.33;;;;;23.95;32.98;101332.84;146611;640;46019;-72
2021/09/23 08:48:50;;;;;;;;;4.75;3.75;;;;;23.95;34.79;101353.16;146605;647;46018;-69
2021/09/23 08:51:26;;;;;;;;;7.00;7.00;;;;;24.00;35.56;101348.78;146606;619;46020;-72
2021/09/23 08:54:00;;;;;;;;;3.00;3.00;;;;;24.14;35.06;101354.16;146604;579;46019;-77
2021/09/23 08:56:34;;;;;;;;;6.75;4.25;;;;;24.32;34.36;101354.25;146604;652;46018;-75
2021/09/23 08:59:08;;;;;;;;;4.33;3.67;;;;;24.53;33.29;101355.28;146608;641;46018;-73
2021/09/23 09:01:54;;;;;;;;;7.00;6.25;;;;;24.68;34.37;101350.03;146607;660;46019;-79
2021/09/23 09:04:38;;;;;;;;;4.67;3.67;;;;;24.74;33.86;101352.69;146608;642;46010;-78
2021/09/23 09:07:13;;;;;;;;;3.67;3.67;;;;;24.73;33.16;101350.03;146610;603;46018;-78
2021/09/23 09:09:50;;;;;;;;;4.67;4.67;;;;;24.68;32.75;101346.50;146606;564;47010;-79
2021/09/23 09:12:24;;;;;;;;;5.33;5.00;;;;;24.70;33.95;101350.00;146611;613;46008;-77
2021/09/23 09:14:58;;;;;;;;;5.00;5.00;;;;;24.73;33.87;101347.38;146606;599;46010;-79
2021/09/23 09:17:39;;;;;;;;;4.67;4.00;;;;;24.78;35.68;101357.12;146611;572;45021;-78
2021/09/23 09:20:13;;;;;;;;;3.67;3.67;;;;;24.82;33.81;101358.87;146605;624;46018;-78
2021/09/23 09:22:47;;;;;;;;;4.67;4.67;;;;;24.82;33.39;101352.69;146608;635;47006;-79
2021/09/23 09:25:22;;;;;;;;;5.00;5.00;;;;;24.90;33.92;101350.97;146607;569;46018;-78
2021/09/23 09:27:58;;;;;;;;;5.67;5.00;;;;;24.25;33.44;101219.97;146609;574;46018;-78
2021/09/23 09:30:33;;;;;;;;;3.67;3.67;;;;;25.09;34.46;101349.22;146605;565;46915;-79
2021/09/23 09:33:09;;;;;;;;;4.67;4.67;;;;;25.03;33.13;101349.22;146608;587;46018;-79
2021/09/23 09:35:42;;;;;;;;;3.67;3.67;;;;;24.88;33.34;101352.72;146609;612;45046;-79
2021/09/23 09:38:17;;;;;;;;;7.00;5.33;;;;;24.82;32.64;101365.97;146607;569;46019;-79
2021/09/23 09:40:58;;;;;;;;;5.00;4.00;;;;;24.81;34.26;101351.81;146603;665;46021;-80
2021/09/23 09:43:35;;;;;;;;;4.67;4.33;;;;;24.80;34.34;101358.03;146608;596;46018;-78
2021/09/23 09:46:09;;;;;;;;;5.00;4.75;;;;;24.88;32.74;101345.63;146605;611;46019;-79
2021/09/23 09:48:45;;;;;;;;;3.33;3.33;;;;;24.98;33.36;101340.34;146613;667;46008;-79
2021/09/23 09:51:19;;;;;;;;;5.00;4.00;;;;;25.08;31.73;101336.84;146608;585;46018;-80
2021/09/23 09:54:04;;;;;;;;;5.00;5.00;;;;;25.14;33.79;101343.94;146606;583;46008;-80
2021/09/23 09:56:38;;;;;;;;;4.00;4.00;;;;;25.20;30.91;101342.19;146607;607;46018;-80
2021/09/23 09:59:15;;;;;;;;;5.00;5.00;;;;;25.26;32.56;101341.31;146610;628;45018;-78
2021/09/23 10:01:52;;;;;;;;;6.67;6.67;;;;;25.41;31.87;101337.78;146607;636;46010;-78
2021/09/23 10:04:30;;;;;;;;;3.50;3.50;;;;;25.53;33.63;101341.31;146609;576;46010;-84
2021/09/23 10:07:06;;;;;;;;;5.00;4.00;;;;;25.62;30.19;101331.56;146606;603;46018;-81
2021/09/23 10:09:41;;;;;;;;;4.00;4.00;;;;;25.68;32.90;101340.41;146607;588;46018;-81
2021/09/23 10:12:15;;;;;;;;;3.67;3.00;;;;;25.76;31.80;101357.25;146604;648;46010;-83
2021/09/23 10:14:51;;;;;;;;;3.00;3.00;;;;;25.76;30.03;101348.38;146607;599;46010;-83
2021/09/23 10:17:30;;;;;;;;;3.67;3.67;;;;;25.74;29.75;101343.06;146605;664;46018;-83
2021/09/23 10:20:11;;;;;;;;;4.67;4.33;;;;;25.79;32.55;101338.66;146610;603;45020;-82
2021/09/23 10:22:45;;;;;;;;;4.67;4.67;;;;;25.84;30.70;101341.31;146605;633;46018;-82
2021/09/23 10:25:23;;;;;;;;;4.00;4.00;;;;;25.91;31.97;101326.25;146608;579;45018;-80
2021/09/23 10:28:00;;;;;;;;;3.00;3.00;;;;;25.99;30.41;101338.63;146607;578;46018;-83
2021/09/23 10:30:39;;;;;;;;;4.75;3.75;;;;;26.03;31.74;101328.87;146608;645;46018;-81
2021/09/23 10:33:13;;;;;;;;;5.00;4.00;;;;;26.01;30.01;101326.22;146607;704;46010;-81
2021/09/23 10:35:48;;;;;;;;;3.00;3.00;;;;;25.92;28.63;101328.91;146611;591;46018;-81
2021/09/23 10:38:23;;;;;;;;;4.00;2.33;;;;;25.87;30.03;101330.69;146608;660;46010;-82
2021/09/23 10:40:57;;;;;;;;;3.33;2.67;;;;;25.84;31.13;101328.03;146607;587;46018;-81
2021/09/23 10:43:32;;;;;;;;;3.00;3.00;;;;;25.88;30.74;101329.78;146606;624;47914;-81
2021/09/23 10:46:08;;;;;;;;;4.00;4.00;;;;;25.99;33.49;101324.47;146608;673;47008;-82
2021/09/23 10:48:43;;;;;;;;;3.00;3.00;;;;;26.09;29.09;101330.62;146605;563;46018;-80
2021/09/23 10:51:20;;;;;;;;;1.67;1.67;;;;;26.14;30.80;101324.41;146610;594;45022;-83
2021/09/23 10:53:57;;;;;;;;;2.00;2.00;;;;;26.08;28.50;101323.56;146606;613;46010;-80
2021/09/23 10:56:32;;;;;;;;;3.67;3.33;;;;;25.99;29.32;101321.81;146609;582;46008;-73
2021/09/23 10:59:08;;;;;;;;;2.67;2.67;;;;;25.91;30.25;101332.44;146607;597;46027;-79
2021/09/23 11:01:43;;;;;;;;;2.33;1.33;;;;;25.87;29.40;101332.47;146609;649;46018;-77
2021/09/23 11:04:18;;;;;;;;;2.00;2.00;;;;;25.82;29.69;101326.25;146603;572;48012;-85
2021/09/23 11:06:56;;;;;;;;;1.75;1.75;;;;;25.79;29.35;101327.09;146606;632;47018;-79
2021/09/23 11:09:31;;;;;;;;;1.33;1.33;;;;;25.85;30.03;101335.09;146606;594;46018;-80
2021/09/23 11:12:08;;;;;;;;;2.50;2.50;;;;;25.94;27.62;101335.09;146607;572;47006;-74
2021/09/23 11:14:43;;;;;;;;;1.33;1.33;;;;;26.00;28.80;101318.25;146607;569;46019;-80
2021/09/23 11:17:20;;;;;;;;;2.33;1.33;;;;;26.07;29.45;101319.97;146611;584;45018;-80
2021/09/23 11:20:07;;;;;;;;;2.33;1.67;;;;;26.17;29.88;101319.09;146607;583;45024;-80
2021/09/23 11:22:50;;;;;;;;;2.00;2.00;;;;;26.22;30.21;101316.41;146608;612;46912;-79
2021/09/23 11:25:30;;;;;;;;;2.00;1.00;;;;;26.22;28.94;101319.94;146607;576;46018;-78
2021/09/23 11:28:05;;;;;;;;;1.00;1.00;;;;;26.22;27.76;101321.72;146613;584;45018;-74
2021/09/23 11:30:40;;;;;;;;;2.00;1.33;;;;;26.26;28.00;101318.13;146605;577;46019;-75
2021/09/23 11:33:16;;;;;;;;;1.33;1.33;;;;;26.27;28.69;101314.63;146605;621;46018;-73
2021/09/23 11:35:53;;;;;;;;;3.00;3.00;;;;;26.23;28.09;101312.84;146610;594;45028;-67
2021/09/23 11:38:28;;;;;;;;;2.00;2.00;;;;;26.23;27.68;101311.09;146607;606;46018;-71
2021/09/23 11:41:02;;;;;;;;;2.33;1.00;;;;;26.24;27.01;101310.19;146604;566;46018;-64
2021/09/23 11:43:36;;;;;;;;;1.67;1.67;;;;;26.29;28.33;101306.62;146609;581;46009;-68
2021/09/23 11:46:10;;;;;;;;;1.00;1.00;;;;;26.38;27.80;101309.22;146607;646;46018;-70
2021/09/23 11:48:44;;;;;;;;;0.33;0.33;;;;;26.51;28.49;101299.44;146610;588;46008;-70
2021/09/23 11:51:18;;;;;;;;;1.00;1.00;;;;;26.59;27.66;101298.53;146605;611;46026;-71
2021/09/23 11:53:56;;;;;;;;;0.33;0.33;;;;;26.66;27.63;101310.88;146609;675;46018;-70
2021/09/23 11:56:30;;;;;;;;;1.00;1.00;;;;;26.65;26.86;101306.47;146606;676;46018;-79
2021/09/23 11:59:04;;;;;;;;;1.33;0.33;;;;;26.57;26.26;101310.94;146608;622;46913;-77
2021/09/23 12:01:38;;;;;;;;;1.00;1.00;;;;;26.49;26.23;101310.12;146607;629;46018;-77